sensor_id;sensor_type;location;lat;lon;timestamp;pressure;altitude;pressure_sealevel;temperature;humidity
70200;BME280;57587;55.688;37.600;2023-12-29T00:02:16;98709.78;;;-0.54;57.36
70200;BME280;57587;55.688;37.600;2023-12-29T00:04:43;98701.47;;;-0.59;57.51
70200;BME280;57587;55.688;37.600;2023-12-29T00:07:11;98719.22;;;-0.52;57.16
70200;BME280;57587;55.688;37.600;2023-12-29T00:09:39;98709.81;;;-0.44;57.55
70200;BME280;57587;55.688;37.600;2023-12-29T00:12:08;98696.41;;;-0.41;57.52
70200;BME280;57587;55.688;37.600;2023-12-29T00:14:39;98689.59;;;-0.44;57.34
70200;BME280;57587;55.688;37.600;2023-12-29T00:17:07;98690.72;;;-0.47;57.48
70200;BME280;57587;55.688;37.600;2023-12-29T00:19:34;98683.53;;;-0.44;57.78
70200;BME280;57587;55.688;37.600;2023-12-29T00:22:01;98678.97;;;-0.42;57.42
70200;BME280;57587;55.688;37.600;2023-12-29T00:24:30;98676.47;;;-0.44;57.27
70200;BME280;57587;55.688;37.600;2023-12-29T00:27:01;98668.19;;;-0.39;57.73
70200;BME280;57587;55.688;37.600;2023-12-29T00:29:29;98656.69;;;-0.38;57.05
70200;BME280;57587;55.688;37.600;2023-12-29T00:32:01;98655.84;;;-0.58;57.09
70200;BME280;57587;55.688;37.600;2023-12-29T00:34:31;98653.63;;;-0.53;58.00
70200;BME280;57587;55.688;37.600;2023-12-29T00:37:00;98646.31;;;-0.50;57.20
70200;BME280;57587;55.688;37.600;2023-12-29T00:39:28;98632.03;;;-0.66;57.77
70200;BME280;57587;55.688;37.600;2023-12-29T00:41:58;98638.41;;;-0.59;57.91
70200;BME280;57587;55.688;37.600;2023-12-29T00:44:25;98635.09;;;-0.71;58.00
70200;BME280;57587;55.688;37.600;2023-12-29T00:46:52;98636.31;;;-0.75;58.25
70200;BME280;57587;55.688;37.600;2023-12-29T00:49:20;98633.09;;;-0.88;58.26
70200;BME280;57587;55.688;37.600;2023-12-29T00:51:48;98622.59;;;-0.88;58.19
70200;BME280;57587;55.688;37.600;2023-12-29T00:54:16;98614.56;;;-0.97;58.14
70200;BME280;57587;55.688;37.600;2023-12-29T00:56:50;98615.81;;;-0.91;58.44
70200;BME280;57587;55.688;37.600;2023-12-29T00:59:19;98608.50;;;-0.87;58.47
70200;BME280;57587;55.688;37.600;2023-12-29T01:01:47;98606.31;;;-0.82;58.20
70200;BME280;57587;55.688;37.600;2023-12-29T01:04:14;98606.88;;;-0.79;58.16
70200;BME280;57587;55.688;37.600;2023-12-29T01:06:42;98599.41;;;-0.83;58.31
70200;BME280;57587;55.688;37.600;2023-12-29T01:09:09;98587.50;;;-0.87;58.61
70200;BME280;57587;55.688;37.600;2023-12-29T01:11:37;98576.72;;;-0.84;58.48
70200;BME280;57587;55.688;37.600;2023-12-29T01:14:04;98577.16;;;-0.79;58.65
70200;BME280;57587;55.688;37.600;2023-12-29T01:16:33;98581.97;;;-0.75;58.56
70200;BME280;57587;55.688;37.600;2023-12-29T01:19:00;98575.34;;;-0.69;58.31
70200;BME280;57587;55.688;37.600;2023-12-29T01:21:27;98578.06;;;-0.90;58.39
70200;BME280;57587;55.688;37.600;2023-12-29T01:23:55;98578.06;;;-0.90;58.28
70200;BME280;57587;55.688;37.600;2023-12-29T01:26:22;98578.34;;;-0.93;58.19
70200;BME280;57587;55.688;37.600;2023-12-29T01:28:49;98575.88;;;-0.95;58.83
70200;BME280;57587;55.688;37.600;2023-12-29T01:31:16;98566.91;;;-0.92;59.02
70200;BME280;57587;55.688;37.600;2023-12-29T01:33:44;98556.78;;;-0.97;58.69
70200;BME280;57587;55.688;37.600;2023-12-29T01:36:18;98545.19;;;-0.94;58.88
70200;BME280;57587;55.688;37.600;2023-12-29T01:38:51;98550.72;;;-0.87;58.95
70200;BME280;57587;55.688;37.600;2023-12-29T01:41:22;98538.44;;;-0.77;58.81
70200;BME280;57587;55.688;37.600;2023-12-29T01:46:28;98521.00;;;-0.78;58.41
70200;BME280;57587;55.688;37.600;2023-12-29T01:48:57;98515.47;;;-0.75;58.43
70200;BME280;57587;55.688;37.600;2023-12-29T01:51:26;98512.31;;;-0.69;58.30
70200;BME280;57587;55.688;37.600;2023-12-29T01:53:56;98511.59;;;-0.81;58.46
70200;BME280;57587;55.688;37.600;2023-12-29T01:56:25;98496.56;;;-0.79;58.40
70200;BME280;57587;55.688;37.600;2023-12-29T01:58:54;98491.28;;;-0.79;58.71
70200;BME280;57587;55.688;37.600;2023-12-29T02:01:35;98470.44;;;-0.71;58.47
70200;BME280;57587;55.688;37.600;2023-12-29T02:04:03;98468.75;;;-0.72;58.18
70200;BME280;57587;55.688;37.600;2023-12-29T02:06:31;98461.72;;;-0.90;58.16
70200;BME280;57587;55.688;37.600;2023-12-29T02:08:58;98472.91;;;-0.69;58.33
70200;BME280;57587;55.688;37.600;2023-12-29T02:11:26;98475.66;;;-0.61;58.09
70200;BME280;57587;55.688;37.600;2023-12-29T02:13:53;98466.78;;;-0.50;57.81
70200;BME280;57587;55.688;37.600;2023-12-29T02:19:43;98460.44;;;-0.48;57.61
70200;BME280;57587;55.688;37.600;2023-12-29T02:22:13;98451.84;;;-0.50;57.73
70200;BME280;57587;55.688;37.600;2023-12-29T02:24:47;98467.06;;;-0.43;57.53
70200;BME280;57587;55.688;37.600;2023-12-29T02:27:34;98461.13;;;-0.45;57.49
70200;BME280;57587;55.688;37.600;2023-12-29T02:30:43;98464.84;;;-0.38;57.47
70200;BME280;57587;55.688;37.600;2023-12-29T02:33:19;98467.47;;;-0.38;57.32
70200;BME280;57587;55.688;37.600;2023-12-29T02:35:48;98460.16;;;-0.44;57.45
70200;BME280;57587;55.688;37.600;2023-12-29T02:38:19;98458.50;;;-0.45;57.35
70200;BME280;57587;55.688;37.600;2023-12-29T02:40:47;98451.69;;;-0.38;57.42
70200;BME280;57587;55.688;37.600;2023-12-29T02:43:14;98426.97;;;-0.45;57.27
70200;BME280;57587;55.688;37.600;2023-12-29T02:45:41;98418.81;;;-0.42;57.57
70200;BME280;57587;55.688;37.600;2023-12-29T02:48:09;98413.97;;;-0.57;57.50
70200;BME280;57587;55.688;37.600;2023-12-29T02:50:36;98413.59;;;-0.62;57.87
70200;BME280;57587;55.688;37.600;2023-12-29T02:53:04;98407.50;;;-0.72;57.89
70200;BME280;57587;55.688;37.600;2023-12-29T02:55:31;98409.72;;;-0.67;58.16
70200;BME280;57587;55.688;37.600;2023-12-29T02:57:58;98413.69;;;-0.54;58.02
70200;BME280;57587;55.688;37.600;2023-12-29T03:00:27;98407.09;;;-0.58;58.08
70200;BME280;57587;55.688;37.600;2023-12-29T03:02:54;98405.81;;;-0.54;58.19
70200;BME280;57587;55.688;37.600;2023-12-29T03:05:22;98401.66;;;-0.47;57.88
70200;BME280;57587;55.688;37.600;2023-12-29T03:07:49;98399.63;;;-0.53;58.06
70200;BME280;57587;55.688;37.600;2023-12-29T03:10:17;98392.81;;;-0.45;57.64
70200;BME280;57587;55.688;37.600;2023-12-29T03:12:44;98383.94;;;-0.44;57.50
70200;BME280;57587;55.688;37.600;2023-12-29T03:15:12;98384.53;;;-0.51;57.57
70200;BME280;57587;55.688;37.600;2023-12-29T03:17:39;98386.84;;;-0.48;58.22
70200;BME280;57587;55.688;37.600;2023-12-29T03:20:06;98379.84;;;-0.57;58.58
70200;BME280;57587;55.688;37.600;2023-12-29T03:22:34;98370.13;;;-0.47;58.34
70200;BME280;57587;55.688;37.600;2023-12-29T03:25:02;98366.81;;;-0.49;58.46
70200;BME280;57587;55.688;37.600;2023-12-29T03:27:30;98377.63;;;-0.52;58.69
70200;BME280;57587;55.688;37.600;2023-12-29T03:29:58;98361.69;;;-0.50;58.89
70200;BME280;57587;55.688;37.600;2023-12-29T03:32:25;98365.13;;;-0.40;58.37
70200;BME280;57587;55.688;37.600;2023-12-29T03:34:52;98357.47;;;-0.71;58.68
70200;BME280;57587;55.688;37.600;2023-12-29T03:37:19;98347.47;;;-0.57;58.55
70200;BME280;57587;55.688;37.600;2023-12-29T03:39:46;98349.28;;;-0.58;58.43
70200;BME280;57587;55.688;37.600;2023-12-29T03:42:14;98342.75;;;-0.54;58.68
70200;BME280;57587;55.688;37.600;2023-12-29T03:44:41;98340.91;;;-0.43;58.21
70200;BME280;57587;55.688;37.600;2023-12-29T03:47:09;98339.06;;;-0.61;59.03
70200;BME280;57587;55.688;37.600;2023-12-29T03:49:37;98345.41;;;-0.63;59.29
70200;BME280;57587;55.688;37.600;2023-12-29T03:52:05;98345.97;;;-0.60;59.06
70200;BME280;57587;55.688;37.600;2023-12-29T03:54:32;98351.69;;;-0.74;59.08
70200;BME280;57587;55.688;37.600;2023-12-29T03:56:59;98343.91;;;-0.66;59.31
70200;BME280;57587;55.688;37.600;2023-12-29T03:59:26;98331.84;;;-0.49;58.93
70200;BME280;57587;55.688;37.600;2023-12-29T04:01:53;98314.25;;;-0.49;58.86
70200;BME280;57587;55.688;37.600;2023-12-29T04:04:21;98325.84;;;-0.41;58.77
70200;BME280;57587;55.688;37.600;2023-12-29T04:06:49;98312.00;;;-0.43;58.88
70200;BME280;57587;55.688;37.600;2023-12-29T04:09:16;98306.75;;;-0.43;59.25
70200;BME280;57587;55.688;37.600;2023-12-29T04:11:43;98317.03;;;-0.50;59.30
70200;BME280;57587;55.688;37.600;2023-12-29T04:14:10;98312.19;;;-0.45;59.42
70200;BME280;57587;55.688;37.600;2023-12-29T04:16:40;98320.88;;;-0.44;59.55
70200;BME280;57587;55.688;37.600;2023-12-29T04:19:07;98297.38;;;-0.46;59.84
70200;BME280;57587;55.688;37.600;2023-12-29T04:21:34;98308.22;;;-0.31;60.34
70200;BME280;57587;55.688;37.600;2023-12-29T04:24:02;98296.66;;;-0.38;60.13
70200;BME280;57587;55.688;37.600;2023-12-29T04:26:29;98289.94;;;-0.51;60.74
70200;BME280;57587;55.688;37.600;2023-12-29T04:29:01;98290.22;;;-0.54;61.35
70200;BME280;57587;55.688;37.600;2023-12-29T04:31:29;98272.81;;;-0.55;61.84
70200;BME280;57587;55.688;37.600;2023-12-29T04:33:56;98271.00;;;-0.54;61.68
70200;BME280;57587;55.688;37.600;2023-12-29T04:36:23;98263.22;;;-0.46;61.96
70200;BME280;57587;55.688;37.600;2023-12-29T04:38:51;98257.03;;;-0.55;62.14
70200;BME280;57587;55.688;37.600;2023-12-29T04:41:21;98242.78;;;-0.52;62.01
70200;BME280;57587;55.688;37.600;2023-12-29T04:43:48;98246.81;;;-0.58;61.95
70200;BME280;57587;55.688;37.600;2023-12-29T04:46:15;98240.34;;;-0.63;62.32
70200;BME280;57587;55.688;37.600;2023-12-29T04:48:43;98232.41;;;-0.54;62.64
70200;BME280;57587;55.688;37.600;2023-12-29T04:51:10;98224.47;;;-0.72;62.39
70200;BME280;57587;55.688;37.600;2023-12-29T04:53:37;98216.47;;;-0.70;62.88
70200;BME280;57587;55.688;37.600;2023-12-29T04:56:05;98226.91;;;-0.60;62.89
70200;BME280;57587;55.688;37.600;2023-12-29T04:58:32;98215.47;;;-0.69;62.51
70200;BME280;57587;55.688;37.600;2023-12-29T05:01:00;98219.22;;;-0.72;62.56
70200;BME280;57587;55.688;37.600;2023-12-29T05:03:27;98220.16;;;-0.63;62.73
70200;BME280;57587;55.688;37.600;2023-12-29T05:05:54;98214.13;;;-0.73;62.72
70200;BME280;57587;55.688;37.600;2023-12-29T05:08:21;98215.09;;;-0.74;62.96
70200;BME280;57587;55.688;37.600;2023-12-29T05:10:50;98217.53;;;-0.63;63.23
70200;BME280;57587;55.688;37.600;2023-12-29T05:13:17;98215.88;;;-0.64;62.27
70200;BME280;57587;55.688;37.600;2023-12-29T05:15:44;98220.38;;;-0.56;62.73
70200;BME280;57587;55.688;37.600;2023-12-29T05:18:11;98209.22;;;-0.58;62.67
70200;BME280;57587;55.688;37.600;2023-12-29T05:20:39;98210.03;;;-0.58;62.64
70200;BME280;57587;55.688;37.600;2023-12-29T05:23:06;98203.69;;;-0.55;62.90
70200;BME280;57587;55.688;37.600;2023-12-29T05:25:33;98202.22;;;-0.50;62.95
70200;BME280;57587;55.688;37.600;2023-12-29T05:28:00;98190.38;;;-0.54;63.11
70200;BME280;57587;55.688;37.600;2023-12-29T05:30:28;98187.44;;;-0.51;63.37
70200;BME280;57587;55.688;37.600;2023-12-29T05:32:58;98175.97;;;-0.50;63.36
70200;BME280;57587;55.688;37.600;2023-12-29T05:35:25;98181.09;;;-0.48;64.13
70200;BME280;57587;55.688;37.600;2023-12-29T05:37:52;98187.09;;;-0.56;63.23
70200;BME280;57587;55.688;37.600;2023-12-29T05:40:20;98193.16;;;-0.55;63.75
70200;BME280;57587;55.688;37.600;2023-12-29T05:42:47;98196.69;;;-0.47;63.94
70200;BME280;57587;55.688;37.600;2023-12-29T05:45:16;98201.00;;;-0.45;63.50
70200;BME280;57587;55.688;37.600;2023-12-29T05:47:44;98199.31;;;-0.47;63.57
70200;BME280;57587;55.688;37.600;2023-12-29T05:50:11;98193.34;;;-0.39;63.57
70200;BME280;57587;55.688;37.600;2023-12-29T05:52:38;98185.59;;;-0.40;63.35
70200;BME280;57587;55.688;37.600;2023-12-29T05:55:06;98184.47;;;-0.38;63.48
70200;BME280;57587;55.688;37.600;2023-12-29T05:57:33;98180.03;;;-0.37;63.51
70200;BME280;57587;55.688;37.600;2023-12-29T06:00:00;98183.66;;;-0.38;62.81
70200;BME280;57587;55.688;37.600;2023-12-29T06:02:38;98174.31;;;-0.51;63.65
70200;BME280;57587;55.688;37.600;2023-12-29T06:05:05;98178.44;;;-0.48;63.47
70200;BME280;57587;55.688;37.600;2023-12-29T06:07:33;98180.31;;;-0.40;63.58
70200;BME280;57587;55.688;37.600;2023-12-29T06:10:00;98181.41;;;-0.33;63.81
70200;BME280;57587;55.688;37.600;2023-12-29T06:12:31;98189.34;;;-0.25;63.35
70200;BME280;57587;55.688;37.600;2023-12-29T06:14:58;98178.63;;;-0.32;62.68
70200;BME280;57587;55.688;37.600;2023-12-29T06:17:25;98178.31;;;-0.29;63.21
70200;BME280;57587;55.688;37.600;2023-12-29T06:19:52;98176.06;;;-0.24;62.82
70200;BME280;57587;55.688;37.600;2023-12-29T06:22:19;98169.69;;;-0.21;62.88
70200;BME280;57587;55.688;37.600;2023-12-29T06:24:47;98168.28;;;-0.15;61.97
70200;BME280;57587;55.688;37.600;2023-12-29T06:27:15;98164.16;;;-0.18;62.32
70200;BME280;57587;55.688;37.600;2023-12-29T06:29:42;98153.63;;;-0.18;62.03
70200;BME280;57587;55.688;37.600;2023-12-29T06:32:10;98163.06;;;-0.25;62.59
70200;BME280;57587;55.688;37.600;2023-12-29T06:34:37;98152.56;;;-0.25;62.17
70200;BME280;57587;55.688;37.600;2023-12-29T06:37:04;98145.88;;;-0.19;62.37
70200;BME280;57587;55.688;37.600;2023-12-29T06:39:32;98147.38;;;-0.17;62.98
70200;BME280;57587;55.688;37.600;2023-12-29T06:41:59;98140.53;;;-0.10;61.88
70200;BME280;57587;55.688;37.600;2023-12-29T06:44:26;98144.53;;;-0.06;62.14
70200;BME280;57587;55.688;37.600;2023-12-29T06:46:53;98146.25;;;0.04;61.99
70200;BME280;57587;55.688;37.600;2023-12-29T06:49:20;98139.72;;;0.08;61.91
70200;BME280;57587;55.688;37.600;2023-12-29T06:51:48;98134.44;;;0.08;62.21
70200;BME280;57587;55.688;37.600;2023-12-29T06:54:15;98130.47;;;0.04;61.56
70200;BME280;57587;55.688;37.600;2023-12-29T06:56:42;98141.81;;;0.04;61.98
70200;BME280;57587;55.688;37.600;2023-12-29T06:59:09;98140.09;;;0.13;62.30
70200;BME280;57587;55.688;37.600;2023-12-29T07:01:38;98137.81;;;0.18;61.85
70200;BME280;57587;55.688;37.600;2023-12-29T07:04:07;98124.13;;;0.14;61.65
70200;BME280;57587;55.688;37.600;2023-12-29T07:06:37;98141.03;;;0.30;61.62
70200;BME280;57587;55.688;37.600;2023-12-29T07:09:05;98143.13;;;0.26;61.69
70200;BME280;57587;55.688;37.600;2023-12-29T07:11:32;98142.75;;;0.21;61.62
70200;BME280;57587;55.688;37.600;2023-12-29T07:13:59;98138.69;;;0.27;61.48
70200;BME280;57587;55.688;37.600;2023-12-29T07:16:26;98129.97;;;0.26;61.23
70200;BME280;57587;55.688;37.600;2023-12-29T07:18:54;98134.25;;;0.27;61.25
70200;BME280;57587;55.688;37.600;2023-12-29T07:21:21;98125.44;;;0.36;61.61
70200;BME280;57587;55.688;37.600;2023-12-29T07:23:48;98127.00;;;0.47;61.04
70200;BME280;57587;55.688;37.600;2023-12-29T07:26:15;98121.94;;;0.54;60.76
70200;BME280;57587;55.688;37.600;2023-12-29T07:28:42;98126.53;;;0.52;60.97
70200;BME280;57587;55.688;37.600;2023-12-29T07:31:10;98134.31;;;0.61;61.84
70200;BME280;57587;55.688;37.600;2023-12-29T07:33:37;98134.81;;;0.65;61.90
70200;BME280;57587;55.688;37.600;2023-12-29T07:36:04;98125.50;;;0.44;61.41
70200;BME280;57587;55.688;37.600;2023-12-29T07:38:32;98115.00;;;0.53;61.77
70200;BME280;57587;55.688;37.600;2023-12-29T07:40:59;98114.19;;;0.52;61.83
70200;BME280;57587;55.688;37.600;2023-12-29T07:43:26;98106.50;;;0.59;62.22
70200;BME280;57587;55.688;37.600;2023-12-29T07:45:53;98107.16;;;0.61;61.17
70200;BME280;57587;55.688;37.600;2023-12-29T07:48:20;98113.44;;;0.60;61.41
70200;BME280;57587;55.688;37.600;2023-12-29T07:50:47;98111.56;;;0.52;61.86
70200;BME280;57587;55.688;37.600;2023-12-29T07:53:15;98110.72;;;0.52;62.42
70200;BME280;57587;55.688;37.600;2023-12-29T07:55:43;98113.72;;;0.57;63.79
70200;BME280;57587;55.688;37.600;2023-12-29T07:58:10;98110.22;;;0.48;62.88
70200;BME280;57587;55.688;37.600;2023-12-29T08:00:38;98109.22;;;0.49;63.22
70200;BME280;57587;55.688;37.600;2023-12-29T08:03:05;98096.06;;;0.49;63.27
70200;BME280;57587;55.688;37.600;2023-12-29T08:05:33;98112.34;;;0.44;63.92
70200;BME280;57587;55.688;37.600;2023-12-29T08:08:00;98105.69;;;0.32;63.90
70200;BME280;57587;55.688;37.600;2023-12-29T08:10:28;98104.41;;;0.36;65.13
70200;BME280;57587;55.688;37.600;2023-12-29T08:12:55;98105.06;;;0.38;64.60
70200;BME280;57587;55.688;37.600;2023-12-29T08:15:23;98099.13;;;0.36;65.09
70200;BME280;57587;55.688;37.600;2023-12-29T08:17:50;98094.19;;;0.33;66.13
70200;BME280;57587;55.688;37.600;2023-12-29T08:20:17;98093.16;;;0.26;65.73
70200;BME280;57587;55.688;37.600;2023-12-29T08:22:44;98088.72;;;0.27;66.00
70200;BME280;57587;55.688;37.600;2023-12-29T08:25:11;98092.97;;;0.28;65.53
70200;BME280;57587;55.688;37.600;2023-12-29T08:27:39;98084.59;;;0.24;65.90
70200;BME280;57587;55.688;37.600;2023-12-29T08:30:10;98081.13;;;0.23;66.91
70200;BME280;57587;55.688;37.600;2023-12-29T08:32:38;98083.25;;;0.20;66.62
70200;BME280;57587;55.688;37.600;2023-12-29T08:35:05;98085.81;;;0.12;66.05
70200;BME280;57587;55.688;37.600;2023-12-29T08:37:33;98076.41;;;0.09;66.44
70200;BME280;57587;55.688;37.600;2023-12-29T08:40:00;98071.47;;;0.06;66.69
70200;BME280;57587;55.688;37.600;2023-12-29T08:42:29;98076.78;;;0.14;67.20
70200;BME280;57587;55.688;37.600;2023-12-29T08:44:59;98074.69;;;0.18;67.04
70200;BME280;57587;55.688;37.600;2023-12-29T08:47:29;98070.00;;;0.30;67.42
70200;BME280;57587;55.688;37.600;2023-12-29T08:49:56;98067.97;;;0.50;67.18
70200;BME280;57587;55.688;37.600;2023-12-29T08:52:23;98066.50;;;0.55;66.26
70200;BME280;57587;55.688;37.600;2023-12-29T08:54:50;98064.69;;;0.56;65.89
70200;BME280;57587;55.688;37.600;2023-12-29T08:57:17;98063.56;;;0.58;66.13
70200;BME280;57587;55.688;37.600;2023-12-29T08:59:44;98058.47;;;0.57;66.68
70200;BME280;57587;55.688;37.600;2023-12-29T09:02:11;98056.47;;;0.59;66.54
70200;BME280;57587;55.688;37.600;2023-12-29T09:04:40;98045.13;;;0.58;66.64
70200;BME280;57587;55.688;37.600;2023-12-29T09:07:07;98052.06;;;0.59;66.39
70200;BME280;57587;55.688;37.600;2023-12-29T09:09:34;98052.56;;;0.63;65.74
70200;BME280;57587;55.688;37.600;2023-12-29T09:12:01;98052.25;;;0.66;66.24
70200;BME280;57587;55.688;37.600;2023-12-29T09:14:28;98048.44;;;0.60;65.82
70200;BME280;57587;55.688;37.600;2023-12-29T09:16:58;98050.59;;;0.65;65.81
70200;BME280;57587;55.688;37.600;2023-12-29T09:19:25;98048.63;;;0.67;65.98
70200;BME280;57587;55.688;37.600;2023-12-29T09:22:04;98044.06;;;0.77;66.11
70200;BME280;57587;55.688;37.600;2023-12-29T09:24:32;98029.59;;;0.81;65.85
70200;BME280;57587;55.688;37.600;2023-12-29T09:26:59;98036.50;;;0.82;65.46
70200;BME280;57587;55.688;37.600;2023-12-29T09:29:26;98032.47;;;0.96;66.06
70200;BME280;57587;55.688;37.600;2023-12-29T09:31:53;98030.47;;;0.98;65.07
70200;BME280;57587;55.688;37.600;2023-12-29T09:34:20;98020.94;;;1.05;65.43
70200;BME280;57587;55.688;37.600;2023-12-29T09:36:48;98010.91;;;1.09;65.55
70200;BME280;57587;55.688;37.600;2023-12-29T09:39:15;98010.09;;;1.17;64.99
70200;BME280;57587;55.688;37.600;2023-12-29T09:41:45;98007.13;;;1.20;64.72
70200;BME280;57587;55.688;37.600;2023-12-29T09:44:14;98007.97;;;1.28;65.05
70200;BME280;57587;55.688;37.600;2023-12-29T09:46:42;98007.97;;;1.45;64.84
70200;BME280;57587;55.688;37.600;2023-12-29T09:49:09;98012.09;;;1.47;64.58
70200;BME280;57587;55.688;37.600;2023-12-29T09:51:38;98010.31;;;1.56;64.58
70200;BME280;57587;55.688;37.600;2023-12-29T09:54:08;98013.25;;;1.53;64.57
70200;BME280;57587;55.688;37.600;2023-12-29T09:56:38;98000.91;;;1.61;64.29
70200;BME280;57587;55.688;37.600;2023-12-29T09:59:06;98005.84;;;1.65;64.10
70200;BME280;57587;55.688;37.600;2023-12-29T10:01:37;97990.19;;;1.71;64.74
70200;BME280;57587;55.688;37.600;2023-12-29T10:04:04;98005.34;;;1.77;64.31
70200;BME280;57587;55.688;37.600;2023-12-29T10:06:36;97994.97;;;1.84;64.51
70200;BME280;57587;55.688;37.600;2023-12-29T10:09:07;97994.28;;;1.90;64.54
70200;BME280;57587;55.688;37.600;2023-12-29T10:11:38;97998.72;;;1.98;64.35
70200;BME280;57587;55.688;37.600;2023-12-29T10:17:27;97994.38;;;2.21;64.09
70200;BME280;57587;55.688;37.600;2023-12-29T10:23:12;97980.19;;;2.30;63.81
70200;BME280;57587;55.688;37.600;2023-12-29T10:25:40;97981.81;;;2.31;63.81
70200;BME280;57587;55.688;37.600;2023-12-29T10:28:09;97981.94;;;2.38;64.09
70200;BME280;57587;55.688;37.600;2023-12-29T10:30:37;97981.28;;;2.44;63.85
70200;BME280;57587;55.688;37.600;2023-12-29T10:33:04;97980.09;;;2.47;63.89
70200;BME280;57587;55.688;37.600;2023-12-29T10:35:34;97978.97;;;2.41;64.40
70200;BME280;57587;55.688;37.600;2023-12-29T10:38:09;97987.75;;;2.34;64.35
70200;BME280;57587;55.688;37.600;2023-12-29T10:40:40;97979.22;;;2.23;64.93
70200;BME280;57587;55.688;37.600;2023-12-29T10:43:10;97984.09;;;2.35;65.15
70200;BME280;57587;55.688;37.600;2023-12-29T10:45:37;97964.50;;;2.29;65.29
70200;BME280;57587;55.688;37.600;2023-12-29T10:48:05;97967.31;;;2.27;65.82
70200;BME280;57587;55.688;37.600;2023-12-29T10:50:43;97962.03;;;2.36;65.60
70200;BME280;57587;55.688;37.600;2023-12-29T10:53:16;97965.63;;;2.43;65.90
70200;BME280;57587;55.688;37.600;2023-12-29T10:55:44;97966.75;;;2.48;65.91
70200;BME280;57587;55.688;37.600;2023-12-29T10:58:15;97959.00;;;2.47;66.02
70200;BME280;57587;55.688;37.600;2023-12-29T11:00:43;97971.16;;;2.56;65.68
70200;BME280;57587;55.688;37.600;2023-12-29T11:03:15;97964.06;;;2.57;66.35
70200;BME280;57587;55.688;37.600;2023-12-29T11:05:45;97978.06;;;2.65;66.21
70200;BME280;57587;55.688;37.600;2023-12-29T11:08:20;97968.97;;;2.68;66.28
70200;BME280;57587;55.688;37.600;2023-12-29T11:10:48;97969.69;;;2.53;67.10
70200;BME280;57587;55.688;37.600;2023-12-29T11:13:16;97977.75;;;2.60;67.63
70200;BME280;57587;55.688;37.600;2023-12-29T11:15:47;97972.09;;;2.63;67.71
70200;BME280;57587;55.688;37.600;2023-12-29T11:18:17;97970.44;;;2.70;67.75
70200;BME280;57587;55.688;37.600;2023-12-29T11:20:45;97968.44;;;2.72;67.73
70200;BME280;57587;55.688;37.600;2023-12-29T11:23:13;97972.69;;;2.82;68.05
70200;BME280;57587;55.688;37.600;2023-12-29T11:25:44;97968.41;;;2.81;68.12
70200;BME280;57587;55.688;37.600;2023-12-29T11:28:13;97969.41;;;2.80;68.38
70200;BME280;57587;55.688;37.600;2023-12-29T11:30:40;97971.69;;;2.83;68.58
70200;BME280;57587;55.688;37.600;2023-12-29T11:33:46;97973.03;;;2.78;69.27
70200;BME280;57587;55.688;37.600;2023-12-29T11:36:18;97962.81;;;2.75;69.30
70200;BME280;57587;55.688;37.600;2023-12-29T11:39:19;97974.69;;;2.80;69.08
70200;BME280;57587;55.688;37.600;2023-12-29T11:42:04;97975.03;;;2.76;69.48
70200;BME280;57587;55.688;37.600;2023-12-29T11:44:33;97972.41;;;2.76;69.67
70200;BME280;57587;55.688;37.600;2023-12-29T11:47:00;97973.03;;;2.78;69.75
70200;BME280;57587;55.688;37.600;2023-12-29T11:49:58;97976.09;;;2.90;69.82
70200;BME280;57587;55.688;37.600;2023-12-29T11:52:37;97972.63;;;2.90;69.45
70200;BME280;57587;55.688;37.600;2023-12-29T11:55:13;97977.94;;;2.90;69.89
70200;BME280;57587;55.688;37.600;2023-12-29T11:57:42;97971.81;;;2.89;69.56
70200;BME280;57587;55.688;37.600;2023-12-29T12:00:10;97982.19;;;2.91;69.44
70200;BME280;57587;55.688;37.600;2023-12-29T12:02:38;97983.41;;;2.88;69.50
70200;BME280;57587;55.688;37.600;2023-12-29T12:05:09;97983.06;;;2.91;69.85
70200;BME280;57587;55.688;37.600;2023-12-29T12:12:49;97988.47;;;2.98;69.69
70200;BME280;57587;55.688;37.600;2023-12-29T12:17:57;97978.88;;;2.97;69.82
70200;BME280;57587;55.688;37.600;2023-12-29T12:20:28;97974.72;;;3.03;69.67
70200;BME280;57587;55.688;37.600;2023-12-29T12:23:11;97988.09;;;3.01;69.90
70200;BME280;57587;55.688;37.600;2023-12-29T12:25:39;97984.31;;;3.04;70.33
70200;BME280;57587;55.688;37.600;2023-12-29T12:28:09;97991.38;;;3.03;70.32
70200;BME280;57587;55.688;37.600;2023-12-29T12:30:39;97986.28;;;3.02;70.22
70200;BME280;57587;55.688;37.600;2023-12-29T12:33:07;97982.16;;;2.99;70.43
70200;BME280;57587;55.688;37.600;2023-12-29T12:35:38;97998.69;;;3.01;70.74
70200;BME280;57587;55.688;37.600;2023-12-29T12:38:12;97995.50;;;3.06;70.67
70200;BME280;57587;55.688;37.600;2023-12-29T12:40:40;97999.25;;;3.11;70.81
70200;BME280;57587;55.688;37.600;2023-12-29T12:43:07;97997.31;;;3.05;70.92
70200;BME280;57587;55.688;37.600;2023-12-29T12:45:42;98010.66;;;3.12;70.84
70200;BME280;57587;55.688;37.600;2023-12-29T12:50:43;98013.97;;;3.14;70.71
70200;BME280;57587;55.688;37.600;2023-12-29T12:53:12;98016.41;;;3.15;70.88
70200;BME280;57587;55.688;37.600;2023-12-29T12:55:41;98023.16;;;3.18;70.96
70200;BME280;57587;55.688;37.600;2023-12-29T12:58:09;98025.34;;;3.14;70.81
70200;BME280;57587;55.688;37.600;2023-12-29T13:00:37;98021.06;;;3.13;71.07
70200;BME280;57587;55.688;37.600;2023-12-29T13:03:05;98020.41;;;3.11;71.50
70200;BME280;57587;55.688;37.600;2023-12-29T13:05:33;98033.28;;;3.14;71.54
70200;BME280;57587;55.688;37.600;2023-12-29T13:08:00;98030.28;;;3.17;71.25
70200;BME280;57587;55.688;37.600;2023-12-29T13:10:30;98031.56;;;3.21;71.45
70200;BME280;57587;55.688;37.600;2023-12-29T13:12:58;98034.88;;;3.23;71.35
70200;BME280;57587;55.688;37.600;2023-12-29T13:15:25;98020.50;;;3.26;71.04
70200;BME280;57587;55.688;37.600;2023-12-29T13:17:53;98017.03;;;3.26;71.18
70200;BME280;57587;55.688;37.600;2023-12-29T13:20:21;98021.97;;;3.29;71.48
70200;BME280;57587;55.688;37.600;2023-12-29T13:22:52;98021.63;;;3.32;71.15
70200;BME280;57587;55.688;37.600;2023-12-29T13:25:24;98007.91;;;3.28;70.99
70200;BME280;57587;55.688;37.600;2023-12-29T13:27:53;98013.97;;;3.37;71.10